Time;durP1;ratioP1;P1;durP2;ratioP2;P2;SDS_P1;SDS_P2;PMS_P1;PMS_P2;Temp;Humidity;BMP_temperature;BMP_pressure;BME280_temperature;BME280_humidity;BME280_pressure;Samples;Min_cycle;Max_cycle;Signal;HPM_P1;HPM_P2
2023/07/12 00:01:35;;;;;;;;;1.33;1.33;;;;;25.93;100.00;100871.31;5034917;28;45580;-76
2023/07/12 00:04:00;;;;;;;;;1.67;1.67;;;;;25.86;100.00;100869.91;5038169;28;46636;-76
2023/07/12 00:06:36;;;;;;;;;2.00;2.00;;;;;25.84;100.00;100879.94;5039034;28;45419;-75
2023/07/12 00:09:13;;;;;;;;;3.33;2.00;;;;;25.82;100.00;100881.81;5034581;28;45377;-76
2023/07/12 00:11:40;;;;;;;;;3.33;2.00;;;;;25.82;100.00;100881.81;5039311;28;45290;-76
2023/07/12 00:14:06;;;;;;;;;1.67;1.67;;;;;25.84;100.00;100888.03;5038325;28;46448;-76
2023/07/12 00:16:37;;;;;;;;;4.00;2.00;;;;;25.83;100.00;100887.19;5039145;28;45424;-78
2023/07/12 00:19:04;;;;;;;;;1.00;1.00;;;;;25.82;100.00;100890.81;5036982;28;46903;-76
2023/07/12 00:21:30;;;;;;;;;3.00;2.00;;;;;25.82;100.00;100900.75;5036059;28;45533;-77
2023/07/12 00:23:59;;;;;;;;;2.00;2.00;;;;;25.82;100.00;100890.81;5038303;28;47524;-78
2023/07/12 00:26:35;;;;;;;;;1.00;1.00;;;;;25.83;100.00;100886.28;5033641;28;45232;-76
2023/07/12 00:29:03;;;;;;;;;1.33;1.33;;;;;25.83;100.00;100880.84;5027596;28;45505;-76
2023/07/12 00:31:29;;;;;;;;;1.00;1.00;;;;;25.79;100.00;100887.41;5031703;28;45543;-76
2023/07/12 00:33:55;;;;;;;;;2.67;1.00;;;;;25.71;100.00;100876.94;5038483;28;46390;-76
2023/07/12 00:36:22;;;;;;;;;1.67;1.67;;;;;25.66;100.00;100883.53;5038431;28;45294;-77
2023/07/12 00:38:48;;;;;;;;;1.33;1.33;;;;;25.64;100.00;100882.75;5038445;28;45329;-76
2023/07/12 00:41:25;;;;;;;;;1.00;1.00;;;;;25.59;100.00;100882.97;5035182;28;45444;-76
2023/07/12 00:43:53;;;;;;;;;1.67;1.00;;;;;25.57;100.00;100896.56;5037920;28;47605;-76
2023/07/12 00:46:40;;;;;;;;;2.00;2.00;;;;;25.48;100.00;100890.75;5038096;28;45490;-76
2023/07/12 00:49:09;;;;;;;;;3.67;1.00;;;;;25.39;100.00;100896.59;5038520;28;45359;-75
2023/07/12 00:51:34;;;;;;;;;4.00;2.00;;;;;25.36;100.00;100896.78;5038296;28;45581;-76
2023/07/12 00:54:00;;;;;;;;;2.00;2.00;;;;;25.34;100.00;100918.47;5038341;28;46508;-76
2023/07/12 00:56:26;;;;;;;;;2.00;2.00;;;;;25.32;100.00;100912.25;5034128;28;53999;-75
2023/07/12 00:58:57;;;;;;;;;1.67;1.67;;;;;25.31;100.00;100911.38;5035956;28;45206;-77
2023/07/12 01:01:26;;;;;;;;;2.67;2.00;;;;;25.25;100.00;100909.00;5038296;28;45457;-76
2023/07/12 01:03:53;;;;;;;;;2.00;1.00;;;;;25.15;100.00;100913.09;5037855;28;47415;-77
2023/07/12 01:06:20;;;;;;;;;1.00;1.00;;;;;25.02;100.00;100910.03;5035258;28;48051;-76
2023/07/12 01:08:45;;;;;;;;;2.00;2.00;;;;;24.96;100.00;100921.16;5037511;28;57102;-78
2023/07/12 01:11:13;;;;;;;;;1.00;1.00;;;;;24.93;100.00;100921.31;5038088;28;45280;-76
2023/07/12 01:13:44;;;;;;;;;2.00;1.00;;;;;24.86;100.00;100930.63;5037736;28;46858;-76
2023/07/12 01:16:11;;;;;;;;;1.00;1.00;;;;;24.70;100.00;100922.38;5028156;28;45459;-76
2023/07/12 01:18:37;;;;;;;;;2.00;2.00;;;;;24.60;100.00;100934.53;5037788;28;45336;-77
2023/07/12 01:21:06;;;;;;;;;0.00;0.00;;;;;24.51;100.00;100932.28;5027986;28;45488;-76
2023/07/12 01:23:31;;;;;;;;;2.33;1.00;;;;;24.44;100.00;100926.25;5034062;28;47657;-79
2023/07/12 01:26:22;;;;;;;;;1.00;1.00;;;;;24.31;100.00;100927.72;5032979;28;57437;-76
2023/07/12 01:28:51;;;;;;;;;1.00;1.00;;;;;24.24;100.00;100928.94;5030692;28;45466;-76
2023/07/12 01:31:17;;;;;;;;;1.00;1.00;;;;;24.25;100.00;100922.59;5034468;28;45487;-76
2023/07/12 01:33:43;;;;;;;;;2.67;1.33;;;;;24.26;100.00;100929.75;5032136;28;46541;-76
2023/07/12 01:36:08;;;;;;;;;1.00;1.00;;;;;24.25;100.00;100931.56;5035918;28;45274;-75
2023/07/12 01:38:33;;;;;;;;;0.00;0.00;;;;;24.21;100.00;100932.66;5032187;28;45365;-76
2023/07/12 01:40:59;;;;;;;;;0.00;0.00;;;;;24.15;100.00;100929.34;5037452;28;45288;-76
2023/07/12 01:43:24;;;;;;;;;0.00;0.00;;;;;24.09;100.00;100945.81;5037139;28;48966;-76
2023/07/12 01:45:49;;;;;;;;;1.00;1.00;;;;;24.07;100.00;100942.28;5036473;28;45398;-75
2023/07/12 01:48:15;;;;;;;;;0.00;0.00;;;;;24.04;100.00;100946.88;5037263;28;53986;-77
2023/07/12 01:50:41;;;;;;;;;0.00;0.00;;;;;24.02;100.00;100939.78;5030940;28;48800;-75
2023/07/12 01:53:07;;;;;;;;;0.00;0.00;;;;;24.00;100.00;100934.44;5028520;28;47392;-76
2023/07/12 01:55:33;;;;;;;;;1.33;0.00;;;;;23.95;100.00;100941.88;5035108;28;45205;-77
2023/07/12 01:57:58;;;;;;;;;0.00;0.00;;;;;23.93;100.00;100945.59;5037218;28;56169;-76
2023/07/12 02:00:23;;;;;;;;;0.00;0.00;;;;;23.92;100.00;100955.50;5037364;28;45399;-75
2023/07/12 02:02:49;;;;;;;;;0.00;0.00;;;;;23.85;100.00;100950.41;5036487;28;56476;-76
2023/07/12 02:05:14;;;;;;;;;0.00;0.00;;;;;23.83;100.00;100961.28;5035807;28;53780;-76
2023/07/12 02:07:39;;;;;;;;;2.00;0.00;;;;;23.78;100.00;100957.88;5037099;28;45188;-76
2023/07/12 02:10:47;;;;;;;;;0.00;0.00;;;;;23.77;100.00;100956.16;5036212;28;45442;-76
2023/07/12 02:13:31;;;;;;;;;0.00;0.00;;;;;23.73;100.00;100957.19;5032962;28;46557;-75
2023/07/12 02:16:34;;;;;;;;;1.00;0.00;;;;;23.74;100.00;100973.31;5037256;28;45541;-75
2023/07/12 02:18:59;;;;;;;;;0.33;0.00;;;;;23.76;100.00;100968.75;5036760;28;45518;-78
2023/07/12 02:21:25;;;;;;;;;0.67;0.67;;;;;23.76;100.00;100974.16;5036843;28;47829;-77
2023/07/12 02:24:09;;;;;;;;;0.00;0.00;;;;;23.73;100.00;100976.06;5036267;28;65824;-76
2023/07/12 02:26:37;;;;;;;;;0.00;0.00;;;;;23.65;100.00;100959.31;5036659;28;52902;-77
2023/07/12 02:29:02;;;;;;;;;0.00;0.00;;;;;23.60;100.00;100967.59;5018345;28;45348;-76
2023/07/12 02:31:29;;;;;;;;;0.67;0.00;;;;;23.50;100.00;100975.16;5036860;28;45541;-75
2023/07/12 02:33:54;;;;;;;;;0.00;0.00;;;;;23.44;100.00;100977.25;5030096;28;47474;-76
2023/07/12 02:36:19;;;;;;;;;1.67;1.00;;;;;23.37;100.00;100981.97;5036029;28;52757;-75
2023/07/12 02:38:46;;;;;;;;;0.67;0.00;;;;;23.31;100.00;100986.72;5036800;28;45305;-75
2023/07/12 02:41:12;;;;;;;;;0.00;0.00;;;;;23.23;100.00;100981.66;5036932;28;45281;-78
2023/07/12 02:43:37;;;;;;;;;0.00;0.00;;;;;23.14;100.00;100985.56;5034487;28;48426;-77
2023/07/12 02:46:03;;;;;;;;;0.00;0.00;;;;;23.10;100.00;100983.94;5034855;28;61251;-77
2023/07/12 02:48:28;;;;;;;;;1.00;0.33;;;;;23.12;100.00;100987.47;5036509;28;45605;-76
2023/07/12 02:50:53;;;;;;;;;0.00;0.00;;;;;23.13;100.00;100991.03;5036104;28;54837;-76
2023/07/12 02:53:19;;;;;;;;;0.33;0.33;;;;;23.17;100.00;100989.94;5036050;28;58351;-76
2023/07/12 02:55:51;;;;;;;;;0.00;0.00;;;;;23.21;100.00;100988.91;5036417;28;45455;-77
2023/07/12 02:58:17;;;;;;;;;0.00;0.00;;;;;23.24;100.00;100994.19;5035416;28;45392;-76
2023/07/12 03:00:43;;;;;;;;;1.00;1.00;;;;;23.20;100.00;100997.94;5036474;28;45562;-76
2023/07/12 03:03:09;;;;;;;;;1.00;1.00;;;;;23.16;100.00;100998.97;5035150;28;63318;-76
2023/07/12 03:05:38;;;;;;;;;0.33;0.33;;;;;23.15;100.00;101000.78;5036674;28;45147;-76
2023/07/12 03:08:04;;;;;;;;;1.00;1.00;;;;;23.14;100.00;100993.66;5036226;28;45292;-77
2023/07/12 03:10:30;;;;;;;;;0.00;0.00;;;;;23.16;100.00;101002.53;5036523;28;45304;-75
2023/07/12 03:12:55;;;;;;;;;3.00;0.00;;;;;23.12;100.00;100995.53;5036014;28;46453;-75
2023/07/12 03:15:21;;;;;;;;;2.67;1.00;;;;;23.05;100.00;101003.91;5035501;28;45760;-77
2023/07/12 03:17:46;;;;;;;;;1.33;0.00;;;;;22.91;100.00;101004.44;5036215;28;45347;-76
2023/07/12 03:20:12;;;;;;;;;0.00;0.00;;;;;22.79;100.00;101000.31;5034635;28;54221;-76
2023/07/12 03:22:37;;;;;;;;;2.33;1.00;;;;;22.67;100.00;101003.47;5035657;28;47377;-76
2023/07/12 03:25:03;;;;;;;;;0.00;0.00;;;;;22.61;100.00;101003.72;5034466;28;59132;-75
2023/07/12 03:27:28;;;;;;;;;3.67;1.00;;;;;22.58;100.00;101007.38;5035916;28;45492;-76
2023/07/12 03:29:54;;;;;;;;;0.67;0.67;;;;;22.53;100.00;101009.38;5025562;28;51654;-76
2023/07/12 03:32:19;;;;;;;;;1.00;1.00;;;;;22.49;100.00;101015.78;5037470;28;60472;-75
2023/07/12 03:34:44;;;;;;;;;2.33;1.33;;;;;22.48;100.00;101025.69;5033684;28;45384;-76
2023/07/12 03:37:12;;;;;;;;;1.00;1.00;;;;;22.43;100.00;101022.28;5036067;28;47619;-77
2023/07/12 03:39:37;;;;;;;;;1.67;0.33;;;;;22.39;100.00;101023.31;5039584;28;45495;-76
2023/07/12 03:42:03;;;;;;;;;2.33;1.00;;;;;22.33;100.00;101017.28;5036011;28;48495;-78
2023/07/12 03:44:28;;;;;;;;;7.33;2.00;;;;;22.32;100.00;101019.09;5039117;28;45261;-75
2023/07/12 03:46:54;;;;;;;;;3.00;1.00;;;;;22.34;100.00;101022.59;5039444;28;45307;-76
2023/07/12 03:49:19;;;;;;;;;0.00;0.00;;;;;22.29;100.00;101026.38;5039600;28;45260;-76
2023/07/12 03:51:44;;;;;;;;;1.00;1.00;;;;;22.20;100.00;101028.44;5038794;28;55952;-78
2023/07/12 03:54:10;;;;;;;;;2.67;1.33;;;;;22.12;100.00;101021.56;5039132;28;45367;-75
2023/07/12 03:56:35;;;;;;;;;1.00;1.00;;;;;21.96;100.00;101026.53;5039368;28;45830;-76
2023/07/12 03:59:01;;;;;;;;;0.33;0.33;;;;;21.92;100.00;101041.88;5039164;28;45343;-75
2023/07/12 04:01:26;;;;;;;;;1.00;1.00;;;;;21.91;100.00;101040.13;5038586;28;64409;-75
2023/07/12 04:03:51;;;;;;;;;2.33;2.00;;;;;21.88;100.00;101042.91;5037350;28;45467;-76
2023/07/12 04:06:17;;;;;;;;;3.00;1.00;;;;;21.81;100.00;101035.09;5038081;28;45577;-76
2023/07/12 04:08:42;;;;;;;;;1.00;1.00;;;;;21.74;100.00;101036.25;5036821;28;55005;-75
2023/07/12 04:11:21;;;;;;;;;2.00;1.00;;;;;21.71;100.00;101040.75;5038598;28;47126;-75
2023/07/12 04:13:46;;;;;;;;;1.00;1.00;;;;;21.64;100.00;101041.03;5037620;28;46432;-75
2023/07/12 04:16:13;;;;;;;;;2.33;1.00;;;;;21.58;100.00;101042.09;5039109;28;45177;-75
2023/07/12 04:18:38;;;;;;;;;1.33;1.33;;;;;21.54;100.00;101042.22;5038978;28;45304;-76
2023/07/12 04:21:04;;;;;;;;;1.33;1.33;;;;;21.48;100.00;101054.06;5038086;28;49021;-76
2023/07/12 04:23:30;;;;;;;;;1.00;1.00;;;;;21.36;100.00;101047.25;5038846;28;45470;-77
2023/07/12 04:26:00;;;;;;;;;1.00;1.00;;;;;21.29;100.00;101052.81;5038585;28;45356;-77
2023/07/12 04:28:26;;;;;;;;;3.67;1.00;;;;;21.32;100.00;101055.44;5033036;28;45193;-76
2023/07/12 04:30:51;;;;;;;;;1.00;1.00;;;;;21.37;100.00;101059.75;5033431;28;46084;-75
2023/07/12 04:33:16;;;;;;;;;1.00;1.00;;;;;21.41;100.00;101061.44;5036186;28;66764;-75
2023/07/12 04:35:42;;;;;;;;;1.00;1.00;;;;;21.45;100.00;101068.44;5032949;28;45509;-76
2023/07/12 04:38:07;;;;;;;;;1.00;1.00;;;;;21.44;100.00;101068.50;5031510;28;45414;-75
2023/07/12 04:40:32;;;;;;;;;2.00;0.33;;;;;21.36;100.00;101070.50;5038059;28;46681;-75
2023/07/12 04:42:58;;;;;;;;;1.00;1.00;;;;;21.25;100.00;101076.16;5037667;28;62449;-75
2023/07/12 04:45:23;;;;;;;;;2.33;1.00;;;;;21.18;100.00;101077.28;5037953;28;45455;-75
2023/07/12 04:47:49;;;;;;;;;1.67;1.00;;;;;21.15;100.00;101080.97;5038906;28;45501;-76
2023/07/12 04:50:14;;;;;;;;;2.67;1.00;;;;;21.10;100.00;101093.63;5037974;28;46612;-75
2023/07/12 04:52:39;;;;;;;;;3.00;1.00;;;;;21.10;100.00;101087.38;5038677;28;45364;-76
2023/07/12 04:55:22;;;;;;;;;1.67;1.33;;;;;21.09;100.00;101099.03;5038292;28;45709;-76
2023/07/12 04:57:48;;;;;;;;;3.00;2.00;;;;;21.03;100.00;101094.72;5038852;28;45373;-75
2023/07/12 05:00:14;;;;;;;;;3.00;2.00;;;;;21.06;100.00;101100.00;5037106;28;67781;-76
2023/07/12 05:02:39;;;;;;;;;4.67;0.33;;;;;21.08;100.00;101098.16;5038505;28;45319;-75
2023/07/12 05:05:05;;;;;;;;;0.67;0.67;;;;;21.05;100.00;101098.25;5037107;28;45451;-76
2023/07/12 05:07:31;;;;;;;;;3.33;2.00;;;;;21.08;100.00;101111.56;5038401;28;45338;-77
2023/07/12 05:09:57;;;;;;;;;1.00;1.00;;;;;21.04;100.00;101111.69;5037526;28;46532;-77
2023/07/12 05:12:22;;;;;;;;;1.00;1.00;;;;;21.05;100.00;101111.69;5038054;28;45344;-76
2023/07/12 05:14:47;;;;;;;;;1.00;1.00;;;;;21.02;100.00;101098.31;5023276;22;56111;-76
2023/07/12 05:17:13;;;;;;;;;2.33;2.00;;;;;21.01;100.00;101106.44;5037654;28;45548;-78
2023/07/12 05:19:38;;;;;;;;;3.33;1.00;;;;;20.99;100.00;101106.47;5035021;28;65159;-76
2023/07/12 05:22:04;;;;;;;;;1.67;1.00;;;;;20.90;100.00;101112.97;5037748;28;45401;-76
2023/07/12 05:24:29;;;;;;;;;2.00;2.00;;;;;20.85;100.00;101112.22;5034720;28;45499;-76
2023/07/12 05:26:56;;;;;;;;;3.33;1.00;;;;;20.86;100.00;101122.03;5037195;28;62645;-78
2023/07/12 05:29:22;;;;;;;;;2.67;1.00;;;;;20.87;100.00;101129.16;5026746;28;46473;-78
2023/07/12 05:31:47;;;;;;;;;2.00;1.00;;;;;20.84;100.00;101131.94;5036859;28;66368;-75
2023/07/12 05:34:12;;;;;;;;;3.33;1.00;;;;;20.80;100.00;101127.56;5030538;28;64475;-75
2023/07/12 05:36:38;;;;;;;;;1.67;0.00;;;;;20.81;100.00;101133.81;5037376;28;64838;-75
2023/07/12 05:39:04;;;;;;;;;2.67;1.00;;;;;20.81;100.00;101125.75;5037854;28;45572;-75
2023/07/12 05:41:29;;;;;;;;;2.33;1.00;;;;;20.84;100.00;101131.94;5037222;28;45424;-76
2023/07/12 05:43:54;;;;;;;;;1.00;1.00;;;;;20.88;100.00;101139.00;5037304;28;46195;-79
2023/07/12 05:46:20;;;;;;;;;2.33;1.00;;;;;20.95;100.00;101149.56;5037996;28;45609;-79
2023/07/12 05:48:45;;;;;;;;;2.00;1.00;;;;;21.00;100.00;101136.88;5037098;28;46234;-76
2023/07/12 05:51:11;;;;;;;;;4.00;1.00;;;;;21.10;100.00;101144.66;5036035;28;45345;-75
2023/07/12 05:53:36;;;;;;;;;1.67;0.00;;;;;21.21;100.00;101147.03;5035851;28;45352;-78
2023/07/12 05:56:04;;;;;;;;;0.33;0.00;;;;;21.29;100.00;101147.69;5037781;28;45584;-76
2023/07/12 05:58:29;;;;;;;;;1.00;1.00;;;;;21.31;100.00;101158.44;5037145;28;47705;-75
2023/07/12 06:01:00;;;;;;;;;3.00;1.00;;;;;21.29;100.00;101168.28;5037361;28;45264;-78
2023/07/12 06:03:26;;;;;;;;;1.67;1.33;;;;;21.26;100.00;101171.97;5036658;28;45601;-76
2023/07/12 06:05:52;;;;;;;;;0.00;0.00;;;;;21.24;100.00;101162.16;5038020;28;45482;-76
2023/07/12 06:08:18;;;;;;;;;1.00;1.00;;;;;21.25;100.00;101162.13;5037252;28;46597;-80
2023/07/12 06:10:44;;;;;;;;;1.00;1.00;;;;;21.32;100.00;101163.75;5036452;28;45407;-75
2023/07/12 06:13:09;;;;;;;;;2.67;1.00;;;;;21.33;100.00;101156.59;5036994;28;45408;-75
2023/07/12 06:15:35;;;;;;;;;1.33;1.33;;;;;21.38;100.00;101155.53;5035287;28;62632;-77
2023/07/12 06:18:00;;;;;;;;;3.33;1.00;;;;;21.48;100.00;101157.97;5036985;28;47753;-75
2023/07/12 06:20:26;;;;;;;;;1.00;1.00;;;;;21.55;100.00;101162.22;5035696;28;67895;-75
2023/07/12 06:22:51;;;;;;;;;1.67;1.00;;;;;21.65;100.00;101161.03;5037319;28;45566;-79
2023/07/12 06:25:17;;;;;;;;;2.33;1.00;;;;;21.73;100.00;101160.78;5036417;28;45344;-75
2023/07/12 06:27:42;;;;;;;;;3.00;1.00;;;;;21.76;100.00;101171.47;5033465;28;69649;-76
2023/07/12 06:30:08;;;;;;;;;3.33;1.00;;;;;21.68;100.00;101171.69;5033939;28;45311;-75
2023/07/12 06:32:33;;;;;;;;;3.33;1.00;;;;;21.61;100.00;101167.41;5033215;28;45523;-76
2023/07/12 06:34:58;;;;;;;;;2.00;2.00;;;;;21.64;100.00;101161.97;5026696;28;63425;-77
2023/07/12 06:37:23;;;;;;;;;1.00;1.00;;;;;21.68;100.00;101166.31;5031473;28;67146;-76
2023/07/12 06:39:49;;;;;;;;;2.67;1.00;;;;;21.66;100.00;101170.84;5030207;28;45514;-77
2023/07/12 06:42:14;;;;;;;;;1.67;1.67;;;;;21.62;100.00;101177.22;5033071;28;56648;-76
2023/07/12 06:44:39;;;;;;;;;2.00;1.00;;;;;21.59;100.00;101201.53;5031164;28;55737;-77
2023/07/12 06:47:05;;;;;;;;;2.00;2.00;;;;;21.53;100.00;101193.63;5033120;28;67169;-75
2023/07/12 06:49:30;;;;;;;;;2.33;1.00;;;;;21.48;100.00;101190.19;5033856;28;45414;-75
2023/07/12 06:51:57;;;;;;;;;3.00;2.00;;;;;21.48;100.00;101190.19;5031893;28;48393;-77
2023/07/12 06:54:23;;;;;;;;;1.00;1.00;;;;;21.56;100.00;101201.59;5021772;28;45492;-75
2023/07/12 06:56:48;;;;;;;;;3.00;1.00;;;;;21.59;100.00;101196.16;5033618;28;46473;-75
2023/07/12 06:59:13;;;;;;;;;1.00;1.00;;;;;21.61;100.00;101202.34;5030025;28;45448;-74
2023/07/12 07:01:39;;;;;;;;;0.67;0.33;;;;;21.68;100.00;101195.88;5027011;28;65322;-74
2023/07/12 07:04:05;;;;;;;;;1.33;1.00;;;;;21.72;100.00;101194.84;5030879;28;57229;-75
2023/07/12 07:06:30;;;;;;;;;2.00;1.00;;;;;21.76;100.00;101184.91;5033411;28;56352;-75
2023/07/12 07:08:56;;;;;;;;;3.00;1.00;;;;;21.79;100.00;101200.94;5032769;28;45461;-75
2023/07/12 07:11:21;;;;;;;;;0.00;0.00;;;;;21.82;100.00;101196.34;5031500;28;45957;-74
2023/07/12 07:13:50;;;;;;;;;1.00;1.00;;;;;21.82;100.00;101193.66;5032683;28;45536;-74
2023/07/12 07:16:15;;;;;;;;;2.00;1.00;;;;;21.89;100.00;101200.63;5033846;28;46515;-75
2023/07/12 07:18:41;;;;;;;;;3.00;1.00;;;;;21.95;100.00;101196.88;5032372;28;45517;-75
2023/07/12 07:21:06;;;;;;;;;1.00;1.00;;;;;22.05;100.00;101209.13;5031754;28;64744;-81
2023/07/12 07:23:33;;;;;;;;;3.00;2.00;;;;;22.13;100.00;101201.72;5033749;28;49126;-76
2023/07/12 07:26:06;;;;;;;;;1.00;1.00;;;;;22.15;100.00;101205.22;5032054;28;47487;-76
2023/07/12 07:28:32;;;;;;;;;1.00;1.00;;;;;22.09;100.00;101205.38;5030131;28;45453;-76
2023/07/12 07:30:58;;;;;;;;;3.00;1.33;;;;;22.04;100.00;101201.06;5033258;28;64222;-76
2023/07/12 07:33:24;;;;;;;;;1.00;1.00;;;;;22.06;100.00;101201.94;5031426;28;45344;-79
2023/07/12 07:35:49;;;;;;;;;1.33;0.33;;;;;22.02;100.00;101205.63;5033899;28;47525;-76
2023/07/12 07:38:15;;;;;;;;;0.00;0.00;;;;;22.00;100.00;101204.78;5033395;28;55072;-76
2023/07/12 07:40:41;;;;;;;;;0.00;0.00;;;;;22.07;100.00;101211.75;5033804;28;45849;-75
2023/07/12 07:43:10;;;;;;;;;1.00;1.00;;;;;22.12;100.00;101213.41;5025887;28;45374;-76
2023/07/12 07:45:36;;;;;;;;;1.00;0.33;;;;;22.14;100.00;101214.22;5029474;28;46626;-76
2023/07/12 07:48:01;;;;;;;;;1.00;0.33;;;;;22.08;100.00;101209.00;5027017;28;45508;-76
2023/07/12 07:50:27;;;;;;;;;0.67;0.67;;;;;22.12;100.00;101220.59;5023309;28;45846;-77
2023/07/12 07:52:53;;;;;;;;;1.00;1.00;;;;;22.13;100.00;101214.28;5017849;28;46890;-78
2023/07/12 07:55:19;;;;;;;;;1.00;1.00;;;;;22.13;100.00;101208.91;5019268;28;47492;-77
2023/07/12 07:57:45;;;;;;;;;1.00;1.00;;;;;22.16;100.00;101214.19;5028340;28;45546;-78
2023/07/12 08:00:13;;;;;;;;;1.00;1.00;;;;;22.22;100.00;101220.25;5028653;28;56177;-77
2023/07/12 08:02:40;;;;;;;;;2.00;0.33;;;;;22.32;100.00;101214.56;5025039;28;45791;-76
2023/07/12 08:05:05;;;;;;;;;2.00;1.00;;;;;22.40;100.00;101207.16;5024616;28;46345;-77
2023/07/12 08:07:40;;;;;;;;;2.00;1.00;;;;;22.38;100.00;101204.53;5025877;28;45584;-77
2023/07/12 08:10:10;;;;;;;;;3.00;0.33;;;;;22.38;100.00;101209.03;5025202;28;45550;-76
2023/07/12 08:12:36;;;;;;;;;0.33;0.33;;;;;22.44;100.00;101215.06;5028809;28;45601;-78
2023/07/12 08:15:01;;;;;;;;;1.00;1.00;;;;;22.46;100.00;101223.97;5024189;28;47468;-79
2023/07/12 08:17:26;;;;;;;;;0.00;0.00;;;;;22.55;100.00;101230.00;5024740;28;51244;-77
2023/07/12 08:19:53;;;;;;;;;2.00;0.67;;;;;22.57;100.00;101231.69;5030035;28;52252;-79
2023/07/12 08:22:19;;;;;;;;;1.67;1.00;;;;;22.58;100.00;101227.19;5032315;28;45447;-77
2023/07/12 08:24:46;;;;;;;;;1.00;0.67;;;;;22.56;100.00;101223.69;5027706;28;47037;-76
2023/07/12 08:27:11;;;;;;;;;0.33;0.33;;;;;22.57;100.00;101222.75;5033214;28;45504;-77
2023/07/12 08:29:37;;;;;;;;;1.00;1.00;;;;;22.61;99.48;101221.72;5023274;28;45508;-77
2023/07/12 08:32:03;;;;;;;;;0.67;0.67;;;;;22.62;98.73;101212.72;5029692;28;45523;-78
2023/07/12 08:34:28;;;;;;;;;0.00;0.00;;;;;22.65;96.64;101209.94;5032202;28;46426;-76
2023/07/12 08:36:54;;;;;;;;;2.00;1.00;;;;;22.66;96.52;101219.78;5030808;28;61103;-77
2023/07/12 08:39:19;;;;;;;;;0.00;0.00;;;;;22.66;97.29;101211.69;5030919;28;45332;-77
2023/07/12 08:41:44;;;;;;;;;1.33;1.00;;;;;22.79;97.89;101212.16;5038080;28;45486;-76
2023/07/12 08:44:13;;;;;;;;;2.00;1.00;;;;;22.97;97.70;101215.16;5032155;28;57493;-77
2023/07/12 08:46:43;;;;;;;;;2.00;0.00;;;;;23.21;96.74;101215.22;5038210;28;45987;-77
2023/07/12 08:49:10;;;;;;;;;0.00;0.00;;;;;23.38;96.11;101230.78;5035570;28;45848;-77
2023/07/12 08:51:36;;;;;;;;;3.33;0.00;;;;;23.51;95.58;101226.72;5032525;28;45552;-78
2023/07/12 08:54:02;;;;;;;;;1.00;1.00;;;;;23.56;94.96;101226.56;5033884;28;54750;-78
2023/07/12 08:56:27;;;;;;;;;1.67;0.00;;;;;23.58;94.17;101230.06;5032721;28;45464;-78
2023/07/12 08:58:54;;;;;;;;;0.00;0.00;;;;;23.48;94.41;101227.69;5035480;28;45502;-76
2023/07/12 09:01:49;;;;;;;;;0.00;0.00;;;;;23.43;94.01;101235.06;5037712;28;45190;-77
2023/07/12 09:04:23;;;;;;;;;0.00;0.00;;;;;23.42;94.69;101230.63;5036741;28;46169;-76
2023/07/12 09:07:00;;;;;;;;;0.00;0.00;;;;;23.52;93.58;101232.03;5036806;28;45446;-76
2023/07/12 09:09:32;;;;;;;;;2.00;1.00;;;;;23.61;94.02;101222.75;5034200;28;45719;-74
2023/07/12 09:12:00;;;;;;;;;0.00;0.00;;;;;23.70;93.04;101241.34;5036403;28;45536;-75
2023/07/12 09:14:26;;;;;;;;;0.67;0.67;;;;;23.71;92.23;101234.13;5037201;28;46303;-75
2023/07/12 09:16:56;;;;;;;;;0.00;0.00;;;;;23.66;91.46;101236.97;5033978;28;45490;-76
2023/07/12 09:19:30;;;;;;;;;0.00;0.00;;;;;23.61;91.47;101238.06;5036863;28;45572;-76
2023/07/12 09:21:58;;;;;;;;;2.00;1.00;;;;;23.62;91.55;101238.00;5036814;28;45683;-77
2023/07/12 09:24:27;;;;;;;;;0.00;0.00;;;;;23.70;91.58;101237.72;5039180;28;46309;-77
2023/07/12 09:27:14;;;;;;;;;1.00;1.00;;;;;23.86;89.98;101249.69;5036833;28;45564;-75
2023/07/12 09:29:40;;;;;;;;;1.00;1.00;;;;;23.94;88.65;101235.94;5030009;28;45426;-76
2023/07/12 09:32:15;;;;;;;;;3.00;1.00;;;;;23.95;88.78;101243.09;5042224;28;45419;-77
2023/07/12 09:34:44;;;;;;;;;3.67;1.33;;;;;23.92;88.42;101238.72;5031301;28;46693;-76
2023/07/12 09:37:15;;;;;;;;;1.00;1.00;;;;;23.93;89.04;101244.97;5016735;28;62878;-77
2023/07/12 09:39:40;;;;;;;;;1.00;1.00;;;;;23.97;89.13;101244.81;5032409;28;45288;-76
2023/07/12 09:42:10;;;;;;;;;2.00;1.00;;;;;24.07;89.07;101253.41;5038328;28;45485;-76
2023/07/12 09:44:36;;;;;;;;;0.00;0.00;;;;;24.23;88.77;101254.56;5037124;28;46771;-76
2023/07/12 09:47:18;;;;;;;;;1.00;1.00;;;;;24.44;87.71;101255.56;5033981;28;45744;-76
2023/07/12 09:49:55;;;;;;;;;0.67;0.67;;;;;24.60;86.93;101249.56;5031713;28;45631;-76
2023/07/12 09:52:27;;;;;;;;;0.00;0.00;;;;;24.72;85.34;101243.69;5031696;28;45501;-76
2023/07/12 09:54:59;;;;;;;;;2.00;0.33;;;;;24.76;85.78;101246.16;5036262;28;47436;-76
2023/07/12 09:57:56;;;;;;;;;1.00;1.00;;;;;24.82;85.73;101242.34;5032079;28;45479;-77
2023/07/12 10:00:59;;;;;;;;;3.33;1.00;;;;;24.83;84.20;101254.91;5035758;28;45504;-76
2023/07/12 10:03:33;;;;;;;;;1.00;1.00;;;;;24.75;83.21;101254.34;4991370;28;45567;-76
2023/07/12 10:06:07;;;;;;;;;24.00;20.00;;;;;24.68;81.65;101258.25;4993634;28;45935;-79
2023/07/12 10:08:45;;;;;;;;;30.67;28.67;;;;;24.60;81.80;101254.97;5005297;28;45392;-76
2023/07/12 10:11:29;;;;;;;;;0.67;0.00;;;;;24.61;82.18;101256.72;5032432;28;45529;-75
2023/07/12 10:13:57;;;;;;;;;1.33;1.33;;;;;24.75;81.23;101257.91;5032911;28;45765;-78
2023/07/12 10:16:31;;;;;;;;;1.33;1.33;;;;;24.93;81.34;101255.38;5030617;28;46844;-76
2023/07/12 10:18:57;;;;;;;;;35.75;32.50;;;;;24.99;80.02;101253.34;5026665;28;47233;-76
2023/07/12 10:21:24;;;;;;;;;130.00;119.25;;;;;25.00;80.69;101255.09;5026070;28;45482;-75
2023/07/12 10:23:56;;;;;;;;;32.25;30.25;;;;;24.91;80.22;101247.34;5031595;28;45364;-76
2023/07/12 10:26:22;;;;;;;;;25.67;23.67;;;;;24.88;78.63;101243.94;5028559;28;46765;-77
2023/07/12 10:28:55;;;;;;;;;5.00;4.33;;;;;24.90;77.39;101239.31;5028141;28;60565;-77
2023/07/12 10:31:41;;;;;;;;;2.00;2.00;;;;;25.02;77.63;101239.69;5030165;28;46861;-76
2023/07/12 10:34:15;;;;;;;;;0.00;0.00;;;;;25.12;77.08;101223.97;5021062;28;45702;-77
2023/07/12 10:36:42;;;;;;;;;9.00;8.00;;;;;25.23;77.36;101235.19;5031485;28;46631;-79
2023/07/12 10:39:08;;;;;;;;;6.67;5.00;;;;;25.39;78.55;101232.72;5033700;28;45461;-76
2023/07/12 10:41:46;;;;;;;;;2.00;2.00;;;;;25.44;77.51;101227.97;5032588;28;46133;-77
2023/07/12 10:44:19;;;;;;;;;4.00;4.00;;;;;25.50;76.61;101233.09;5025578;28;45479;-75
2023/07/12 10:46:49;;;;;;;;;8.33;2.00;;;;;25.41;75.84;101227.22;5032081;28;46374;-76
2023/07/12 10:49:18;;;;;;;;;1.67;1.67;;;;;25.40;77.81;101230.88;5023012;28;46688;-75
2023/07/12 10:52:02;;;;;;;;;2.33;1.67;;;;;25.44;76.49;101227.09;5026948;28;45546;-77
2023/07/12 10:54:27;;;;;;;;;1.00;1.00;;;;;25.49;75.42;101227.78;5031359;28;46125;-77
2023/07/12 10:56:54;;;;;;;;;0.33;0.33;;;;;25.52;72.95;101217.72;5029581;28;46346;-76
2023/07/12 10:59:30;;;;;;;;;1.00;1.00;;;;;25.60;73.54;101220.94;5029364;28;45628;-75
2023/07/12 11:01:57;;;;;;;;;5.00;1.00;;;;;25.61;72.43;101233.50;5030608;28;46837;-80
2023/07/12 11:04:31;;;;;;;;;1.00;1.00;;;;;25.65;73.29;101226.13;5032150;28;45463;-77
2023/07/12 11:07:01;;;;;;;;;1.67;1.00;;;;;25.70;72.47;101216.00;5027318;28;46321;-75
2023/07/12 11:09:42;;;;;;;;;1.00;1.00;;;;;25.83;72.72;101213.63;5030822;28;45628;-77
2023/07/12 11:12:08;;;;;;;;;1.00;1.00;;;;;25.93;71.13;101214.94;5030735;28;45599;-74
2023/07/12 11:14:37;;;;;;;;;0.00;0.00;;;;;26.02;68.91;101225.34;5030449;28;45619;-76
2023/07/12 11:17:11;;;;;;;;;1.00;1.00;;;;;26.01;69.07;101210.06;5029231;28;46202;-77
2023/07/12 11:19:39;;;;;;;;;1.00;1.00;;;;;25.99;68.66;101206.53;5026913;28;45514;-78
2023/07/12 11:22:13;;;;;;;;;1.00;1.00;;;;;25.99;69.29;101227.31;5031184;28;45457;-76
2023/07/12 11:24:44;;;;;;;;;0.67;0.67;;;;;25.98;68.83;101217.44;5025470;28;46510;-77